sensor_id;sensor_type;location;lat;lon;timestamp;P1;durP1;ratioP1;P2;durP2;ratioP2
29538;SDS011;16482;51.046;4.498;2023-08-31T00:01:02;1.95;;;1.30;;
29538;SDS011;16482;51.046;4.498;2023-08-31T00:03:31;1.92;;;1.42;;
29538;SDS011;16482;51.046;4.498;2023-08-31T00:06:05;1.55;;;1.17;;
29538;SDS011;16482;51.046;4.498;2023-08-31T00:08:33;1.58;;;1.20;;
29538;SDS011;16482;51.046;4.498;2023-08-31T00:11:00;1.83;;;1.33;;
29538;SDS011;16482;51.046;4.498;2023-08-31T00:13:26;2.42;;;1.25;;
29538;SDS011;16482;51.046;4.498;2023-08-31T00:16:03;1.25;;;1.15;;
29538;SDS011;16482;51.046;4.498;2023-08-31T00:18:30;2.28;;;1.17;;
29538;SDS011;16482;51.046;4.498;2023-08-31T00:20:56;1.67;;;1.20;;
29538;SDS011;16482;51.046;4.498;2023-08-31T00:23:24;1.52;;;1.30;;
29538;SDS011;16482;51.046;4.498;2023-08-31T00:25:53;1.20;;;1.10;;
29538;SDS011;16482;51.046;4.498;2023-08-31T00:28:24;1.85;;;1.25;;
29538;SDS011;16482;51.046;4.498;2023-08-31T00:30:53;1.50;;;1.00;;
29538;SDS011;16482;51.046;4.498;2023-08-31T00:33:30;1.50;;;1.13;;
29538;SDS011;16482;51.046;4.498;2023-08-31T00:36:01;1.50;;;1.15;;
29538;SDS011;16482;51.046;4.498;2023-08-31T00:38:35;1.50;;;1.33;;
29538;SDS011;16482;51.046;4.498;2023-08-31T00:41:01;1.85;;;1.10;;
29538;SDS011;16482;51.046;4.498;2023-08-31T00:43:30;1.52;;;1.10;;
29538;SDS011;16482;51.046;4.498;2023-08-31T00:45:59;1.95;;;1.10;;
29538;SDS011;16482;51.046;4.498;2023-08-31T00:48:29;1.27;;;1.08;;
29538;SDS011;16482;51.046;4.498;2023-08-31T00:51:02;1.65;;;1.17;;
29538;SDS011;16482;51.046;4.498;2023-08-31T00:53:29;1.92;;;1.35;;
29538;SDS011;16482;51.046;4.498;2023-08-31T00:56:06;1.63;;;1.20;;
29538;SDS011;16482;51.046;4.498;2023-08-31T00:58:33;1.33;;;1.08;;
29538;SDS011;16482;51.046;4.498;2023-08-31T01:01:14;1.55;;;1.25;;
29538;SDS011;16482;51.046;4.498;2023-08-31T01:06:13;1.25;;;1.10;;
29538;SDS011;16482;51.046;4.498;2023-08-31T01:11:57;1.73;;;1.50;;
29538;SDS011;16482;51.046;4.498;2023-08-31T01:14:32;1.83;;;1.25;;
29538;SDS011;16482;51.046;4.498;2023-08-31T01:17:04;1.38;;;1.13;;
29538;SDS011;16482;51.046;4.498;2023-08-31T01:19:48;1.70;;;1.25;;
29538;SDS011;16482;51.046;4.498;2023-08-31T01:25:34;1.48;;;1.10;;
29538;SDS011;16482;51.046;4.498;2023-08-31T01:28:12;2.17;;;1.20;;
29538;SDS011;16482;51.046;4.498;2023-08-31T01:30:38;1.48;;;1.00;;
29538;SDS011;16482;51.046;4.498;2023-08-31T01:33:04;1.60;;;1.30;;
29538;SDS011;16482;51.046;4.498;2023-08-31T01:35:31;1.83;;;1.38;;
29538;SDS011;16482;51.046;4.498;2023-08-31T01:38:03;1.98;;;1.40;;
29538;SDS011;16482;51.046;4.498;2023-08-31T01:40:35;1.42;;;1.10;;
29538;SDS011;16482;51.046;4.498;2023-08-31T01:43:12;1.90;;;1.42;;
29538;SDS011;16482;51.046;4.498;2023-08-31T01:45:39;2.17;;;1.20;;
29538;SDS011;16482;51.046;4.498;2023-08-31T01:48:06;1.58;;;1.25;;
29538;SDS011;16482;51.046;4.498;2023-08-31T01:50:43;1.70;;;1.50;;
29538;SDS011;16482;51.046;4.498;2023-08-31T01:53:09;1.63;;;1.30;;
29538;SDS011;16482;51.046;4.498;2023-08-31T01:55:35;1.40;;;1.10;;
29538;SDS011;16482;51.046;4.498;2023-08-31T01:58:01;1.42;;;1.30;;
29538;SDS011;16482;51.046;4.498;2023-08-31T02:00:28;2.30;;;1.35;;
29538;SDS011;16482;51.046;4.498;2023-08-31T02:02:54;1.45;;;1.20;;
29538;SDS011;16482;51.046;4.498;2023-08-31T02:05:23;1.33;;;1.10;;
29538;SDS011;16482;51.046;4.498;2023-08-31T02:07:49;1.30;;;1.20;;
29538;SDS011;16482;51.046;4.498;2023-08-31T02:10:15;1.77;;;1.40;;
29538;SDS011;16482;51.046;4.498;2023-08-31T02:12:41;1.92;;;1.33;;
29538;SDS011;16482;51.046;4.498;2023-08-31T02:15:09;2.50;;;1.38;;
29538;SDS011;16482;51.046;4.498;2023-08-31T02:17:40;1.65;;;1.20;;
29538;SDS011;16482;51.046;4.498;2023-08-31T02:20:13;1.80;;;1.27;;
29538;SDS011;16482;51.046;4.498;2023-08-31T02:22:39;1.40;;;1.30;;
29538;SDS011;16482;51.046;4.498;2023-08-31T02:25:05;1.52;;;1.20;;
29538;SDS011;16482;51.046;4.498;2023-08-31T02:27:42;2.00;;;1.40;;
29538;SDS011;16482;51.046;4.498;2023-08-31T02:30:10;1.83;;;1.25;;
29538;SDS011;16482;51.046;4.498;2023-08-31T02:32:36;1.88;;;1.40;;
29538;SDS011;16482;51.046;4.498;2023-08-31T02:35:05;1.65;;;1.40;;
29538;SDS011;16482;51.046;4.498;2023-08-31T02:37:43;2.38;;;1.40;;
29538;SDS011;16482;51.046;4.498;2023-08-31T02:40:12;2.72;;;1.55;;
29538;SDS011;16482;51.046;4.498;2023-08-31T02:42:41;1.35;;;1.23;;
29538;SDS011;16482;51.046;4.498;2023-08-31T02:45:10;2.28;;;1.30;;
29538;SDS011;16482;51.046;4.498;2023-08-31T02:47:45;1.83;;;1.52;;
29538;SDS011;16482;51.046;4.498;2023-08-31T02:50:14;1.67;;;1.45;;
29538;SDS011;16482;51.046;4.498;2023-08-31T02:52:49;2.60;;;1.55;;
29538;SDS011;16482;51.046;4.498;2023-08-31T02:55:15;1.48;;;1.20;;
29538;SDS011;16482;51.046;4.498;2023-08-31T02:57:50;2.15;;;1.50;;
29538;SDS011;16482;51.046;4.498;2023-08-31T03:00:16;1.73;;;1.50;;
29538;SDS011;16482;51.046;4.498;2023-08-31T03:02:46;2.65;;;1.48;;
29538;SDS011;16482;51.046;4.498;2023-08-31T03:05:13;2.53;;;1.80;;
29538;SDS011;16482;51.046;4.498;2023-08-31T03:07:41;1.90;;;1.50;;
29538;SDS011;16482;51.046;4.498;2023-08-31T03:10:10;1.92;;;1.40;;
29538;SDS011;16482;51.046;4.498;2023-08-31T03:12:44;2.47;;;1.60;;
29538;SDS011;16482;51.046;4.498;2023-08-31T03:15:10;1.52;;;1.40;;
29538;SDS011;16482;51.046;4.498;2023-08-31T03:17:41;1.88;;;1.60;;
29538;SDS011;16482;51.046;4.498;2023-08-31T03:20:14;1.85;;;1.42;;
29538;SDS011;16482;51.046;4.498;2023-08-31T03:22:43;2.05;;;1.75;;
29538;SDS011;16482;51.046;4.498;2023-08-31T03:25:09;1.55;;;1.20;;
29538;SDS011;16482;51.046;4.498;2023-08-31T03:27:40;2.60;;;1.67;;
29538;SDS011;16482;51.046;4.498;2023-08-31T03:30:09;2.33;;;1.65;;
29538;SDS011;16482;51.046;4.498;2023-08-31T03:32:45;2.28;;;1.60;;
29538;SDS011;16482;51.046;4.498;2023-08-31T03:35:14;2.92;;;1.80;;
29538;SDS011;16482;51.046;4.498;2023-08-31T03:37:40;1.70;;;1.40;;
29538;SDS011;16482;51.046;4.498;2023-08-31T03:40:15;2.40;;;1.73;;
29538;SDS011;16482;51.046;4.498;2023-08-31T03:42:41;2.85;;;1.85;;
29538;SDS011;16482;51.046;4.498;2023-08-31T03:45:17;2.33;;;1.70;;
29538;SDS011;16482;51.046;4.498;2023-08-31T03:47:43;2.28;;;1.60;;
29538;SDS011;16482;51.046;4.498;2023-08-31T03:50:12;2.72;;;1.63;;
29538;SDS011;16482;51.046;4.498;2023-08-31T03:52:41;2.20;;;1.85;;
29538;SDS011;16482;51.046;4.498;2023-08-31T03:55:07;2.55;;;1.67;;
29538;SDS011;16482;51.046;4.498;2023-08-31T03:57:41;2.20;;;1.70;;
29538;SDS011;16482;51.046;4.498;2023-08-31T04:00:07;2.00;;;1.67;;
29538;SDS011;16482;51.046;4.498;2023-08-31T04:02:41;1.88;;;1.58;;
29538;SDS011;16482;51.046;4.498;2023-08-31T04:05:10;3.30;;;1.77;;
29538;SDS011;16482;51.046;4.498;2023-08-31T04:07:39;1.90;;;1.60;;
29538;SDS011;16482;51.046;4.498;2023-08-31T04:10:05;2.30;;;1.60;;
29538;SDS011;16482;51.046;4.498;2023-08-31T04:15:10;2.40;;;1.70;;
29538;SDS011;16482;51.046;4.498;2023-08-31T04:17:38;1.80;;;1.63;;
29538;SDS011;16482;51.046;4.498;2023-08-31T04:20:04;2.92;;;1.80;;
29538;SDS011;16482;51.046;4.498;2023-08-31T04:22:42;4.70;;;1.60;;
29538;SDS011;16482;51.046;4.498;2023-08-31T04:25:08;2.05;;;1.60;;
29538;SDS011;16482;51.046;4.498;2023-08-31T04:27:34;2.00;;;1.77;;
29538;SDS011;16482;51.046;4.498;2023-08-31T04:30:13;1.98;;;1.67;;
29538;SDS011;16482;51.046;4.498;2023-08-31T04:32:43;2.05;;;1.55;;
29538;SDS011;16482;51.046;4.498;2023-08-31T04:35:09;2.67;;;1.70;;
29538;SDS011;16482;51.046;4.498;2023-08-31T04:37:36;1.73;;;1.60;;
29538;SDS011;16482;51.046;4.498;2023-08-31T04:40:05;2.05;;;1.70;;
29538;SDS011;16482;51.046;4.498;2023-08-31T04:42:33;2.55;;;1.73;;
29538;SDS011;16482;51.046;4.498;2023-08-31T04:45:03;2.50;;;1.70;;
29538;SDS011;16482;51.046;4.498;2023-08-31T04:47:40;2.15;;;1.70;;
29538;SDS011;16482;51.046;4.498;2023-08-31T04:50:16;2.00;;;1.73;;
29538;SDS011;16482;51.046;4.498;2023-08-31T04:52:42;1.88;;;1.65;;
29538;SDS011;16482;51.046;4.498;2023-08-31T04:55:12;3.97;;;2.00;;
29538;SDS011;16482;51.046;4.498;2023-08-31T04:57:41;3.50;;;2.00;;
29538;SDS011;16482;51.046;4.498;2023-08-31T05:00:07;2.20;;;1.63;;
29538;SDS011;16482;51.046;4.498;2023-08-31T05:02:34;2.78;;;1.80;;
29538;SDS011;16482;51.046;4.498;2023-08-31T05:05:10;2.20;;;1.83;;
29538;SDS011;16482;51.046;4.498;2023-08-31T05:07:42;2.55;;;1.73;;
29538;SDS011;16482;51.046;4.498;2023-08-31T05:10:13;2.15;;;1.67;;
29538;SDS011;16482;51.046;4.498;2023-08-31T05:12:48;2.15;;;1.70;;
29538;SDS011;16482;51.046;4.498;2023-08-31T05:15:14;2.30;;;1.70;;
29538;SDS011;16482;51.046;4.498;2023-08-31T05:17:43;2.70;;;1.92;;
29538;SDS011;16482;51.046;4.498;2023-08-31T05:20:18;2.00;;;1.65;;
29538;SDS011;16482;51.046;4.498;2023-08-31T05:22:46;2.25;;;1.77;;
29538;SDS011;16482;51.046;4.498;2023-08-31T05:25:15;2.88;;;1.90;;
29538;SDS011;16482;51.046;4.498;2023-08-31T05:27:41;2.30;;;1.75;;
29538;SDS011;16482;51.046;4.498;2023-08-31T05:30:10;2.80;;;1.92;;
29538;SDS011;16482;51.046;4.498;2023-08-31T05:32:36;3.05;;;1.90;;
29538;SDS011;16482;51.046;4.498;2023-08-31T05:35:11;2.70;;;1.83;;
29538;SDS011;16482;51.046;4.498;2023-08-31T05:37:44;2.60;;;2.00;;
29538;SDS011;16482;51.046;4.498;2023-08-31T05:40:10;2.78;;;2.00;;
29538;SDS011;16482;51.046;4.498;2023-08-31T05:42:37;2.55;;;1.98;;
29538;SDS011;16482;51.046;4.498;2023-08-31T05:45:11;2.40;;;1.90;;
29538;SDS011;16482;51.046;4.498;2023-08-31T05:47:40;3.55;;;1.90;;
29538;SDS011;16482;51.046;4.498;2023-08-31T05:50:14;2.85;;;1.80;;
29538;SDS011;16482;51.046;4.498;2023-08-31T05:52:40;2.42;;;1.88;;
29538;SDS011;16482;51.046;4.498;2023-08-31T05:55:11;3.80;;;1.80;;
29538;SDS011;16482;51.046;4.498;2023-08-31T05:57:45;2.88;;;1.90;;
29538;SDS011;16482;51.046;4.498;2023-08-31T06:00:11;3.75;;;2.03;;
29538;SDS011;16482;51.046;4.498;2023-08-31T06:02:43;2.22;;;1.80;;
29538;SDS011;16482;51.046;4.498;2023-08-31T06:05:19;3.25;;;1.90;;
29538;SDS011;16482;51.046;4.498;2023-08-31T06:07:45;3.42;;;2.03;;
29538;SDS011;16482;51.046;4.498;2023-08-31T06:10:11;1.83;;;1.63;;
29538;SDS011;16482;51.046;4.498;2023-08-31T06:12:42;2.13;;;1.80;;
29538;SDS011;16482;51.046;4.498;2023-08-31T06:15:11;2.30;;;1.73;;
29538;SDS011;16482;51.046;4.498;2023-08-31T06:17:40;3.45;;;2.03;;
29538;SDS011;16482;51.046;4.498;2023-08-31T06:20:16;1.83;;;1.60;;
29538;SDS011;16482;51.046;4.498;2023-08-31T06:22:52;3.22;;;1.90;;
29538;SDS011;16482;51.046;4.498;2023-08-31T06:25:18;2.50;;;1.95;;
29538;SDS011;16482;51.046;4.498;2023-08-31T06:27:53;5.75;;;1.95;;
29538;SDS011;16482;51.046;4.498;2023-08-31T06:30:19;3.63;;;1.67;;
29538;SDS011;16482;51.046;4.498;2023-08-31T06:32:46;3.97;;;2.22;;
29538;SDS011;16482;51.046;4.498;2023-08-31T06:35:14;2.33;;;1.83;;
29538;SDS011;16482;51.046;4.498;2023-08-31T06:37:49;3.85;;;2.03;;
29538;SDS011;16482;51.046;4.498;2023-08-31T06:40:15;2.65;;;1.73;;
29538;SDS011;16482;51.046;4.498;2023-08-31T06:42:42;2.70;;;2.05;;
29538;SDS011;16482;51.046;4.498;2023-08-31T06:45:10;2.53;;;1.83;;
29538;SDS011;16482;51.046;4.498;2023-08-31T06:47:47;3.45;;;1.90;;
29538;SDS011;16482;51.046;4.498;2023-08-31T06:50:13;2.85;;;1.85;;
29538;SDS011;16482;51.046;4.498;2023-08-31T06:52:41;2.47;;;2.00;;
29538;SDS011;16482;51.046;4.498;2023-08-31T06:55:14;3.15;;;1.80;;
29538;SDS011;16482;51.046;4.498;2023-08-31T06:57:40;2.92;;;2.13;;
29538;SDS011;16482;51.046;4.498;2023-08-31T07:00:07;3.28;;;2.03;;
29538;SDS011;16482;51.046;4.498;2023-08-31T07:02:33;1.92;;;1.70;;
29538;SDS011;16482;51.046;4.498;2023-08-31T07:05:10;3.92;;;2.35;;
29538;SDS011;16482;51.046;4.498;2023-08-31T07:07:36;6.07;;;2.20;;
29538;SDS011;16482;51.046;4.498;2023-08-31T07:10:13;3.20;;;1.90;;
29538;SDS011;16482;51.046;4.498;2023-08-31T07:12:41;2.75;;;1.90;;
29538;SDS011;16482;51.046;4.498;2023-08-31T07:15:09;2.65;;;1.92;;
29538;SDS011;16482;51.046;4.498;2023-08-31T07:17:38;5.10;;;2.13;;
29538;SDS011;16482;51.046;4.498;2023-08-31T07:20:12;3.85;;;2.10;;
29538;SDS011;16482;51.046;4.498;2023-08-31T07:22:38;2.13;;;1.92;;
29538;SDS011;16482;51.046;4.498;2023-08-31T07:25:05;2.95;;;2.05;;
29538;SDS011;16482;51.046;4.498;2023-08-31T07:27:34;3.08;;;2.10;;
29538;SDS011;16482;51.046;4.498;2023-08-31T07:32:45;3.15;;;2.22;;
29538;SDS011;16482;51.046;4.498;2023-08-31T07:35:14;3.08;;;1.92;;
29538;SDS011;16482;51.046;4.498;2023-08-31T07:37:40;3.67;;;2.15;;
29538;SDS011;16482;51.046;4.498;2023-08-31T07:40:07;3.20;;;2.20;;
29538;SDS011;16482;51.046;4.498;2023-08-31T07:42:38;5.05;;;2.55;;
29538;SDS011;16482;51.046;4.498;2023-08-31T07:45:07;3.72;;;2.50;;
29538;SDS011;16482;51.046;4.498;2023-08-31T07:47:40;3.35;;;2.28;;
29538;SDS011;16482;51.046;4.498;2023-08-31T07:50:06;2.45;;;1.92;;
29538;SDS011;16482;51.046;4.498;2023-08-31T07:52:46;3.33;;;2.30;;
29538;SDS011;16482;51.046;4.498;2023-08-31T07:55:14;3.17;;;2.25;;
29538;SDS011;16482;51.046;4.498;2023-08-31T07:57:41;3.42;;;2.00;;
29538;SDS011;16482;51.046;4.498;2023-08-31T08:00:14;4.32;;;2.28;;
29538;SDS011;16482;51.046;4.498;2023-08-31T08:02:40;3.10;;;2.03;;
29538;SDS011;16482;51.046;4.498;2023-08-31T08:05:15;4.50;;;2.20;;
29538;SDS011;16482;51.046;4.498;2023-08-31T08:07:41;4.00;;;2.22;;
29538;SDS011;16482;51.046;4.498;2023-08-31T08:10:11;3.72;;;2.20;;
29538;SDS011;16482;51.046;4.498;2023-08-31T08:12:41;3.42;;;2.05;;
29538;SDS011;16482;51.046;4.498;2023-08-31T08:15:11;3.13;;;2.10;;
29538;SDS011;16482;51.046;4.498;2023-08-31T08:17:41;5.07;;;2.70;;
29538;SDS011;16482;51.046;4.498;2023-08-31T08:20:10;3.63;;;2.42;;
29538;SDS011;16482;51.046;4.498;2023-08-31T08:22:36;3.90;;;2.00;;
29538;SDS011;16482;51.046;4.498;2023-08-31T08:25:10;3.20;;;2.28;;
29538;SDS011;16482;51.046;4.498;2023-08-31T08:27:43;3.63;;;2.25;;
29538;SDS011;16482;51.046;4.498;2023-08-31T08:30:12;3.55;;;2.50;;
29538;SDS011;16482;51.046;4.498;2023-08-31T08:32:41;4.43;;;2.60;;
29538;SDS011;16482;51.046;4.498;2023-08-31T08:35:10;3.65;;;2.53;;
29538;SDS011;16482;51.046;4.498;2023-08-31T08:37:36;3.67;;;2.10;;
29538;SDS011;16482;51.046;4.498;2023-08-31T08:40:03;3.45;;;2.10;;
29538;SDS011;16482;51.046;4.498;2023-08-31T08:42:30;3.58;;;2.80;;
29538;SDS011;16482;51.046;4.498;2023-08-31T08:45:01;4.93;;;2.40;;
29538;SDS011;16482;51.046;4.498;2023-08-31T08:47:27;3.22;;;2.30;;
29538;SDS011;16482;51.046;4.498;2023-08-31T08:49:58;4.13;;;2.60;;
29538;SDS011;16482;51.046;4.498;2023-08-31T08:52:27;3.83;;;2.28;;
29538;SDS011;16482;51.046;4.498;2023-08-31T08:54:53;4.78;;;2.70;;
29538;SDS011;16482;51.046;4.498;2023-08-31T08:57:24;4.45;;;2.47;;
29538;SDS011;16482;51.046;4.498;2023-08-31T08:59:50;4.97;;;2.72;;
29538;SDS011;16482;51.046;4.498;2023-08-31T09:02:18;5.28;;;2.60;;
29538;SDS011;16482;51.046;4.498;2023-08-31T09:04:47;4.50;;;2.40;;
29538;SDS011;16482;51.046;4.498;2023-08-31T09:07:23;3.00;;;2.15;;
29538;SDS011;16482;51.046;4.498;2023-08-31T09:09:53;6.22;;;2.65;;
29538;SDS011;16482;51.046;4.498;2023-08-31T09:12:23;4.05;;;2.45;;
29538;SDS011;16482;51.046;4.498;2023-08-31T09:14:59;3.67;;;2.65;;
29538;SDS011;16482;51.046;4.498;2023-08-31T09:17:26;3.28;;;2.42;;
29538;SDS011;16482;51.046;4.498;2023-08-31T09:20:13;4.25;;;2.45;;
29538;SDS011;16482;51.046;4.498;2023-08-31T09:22:46;6.53;;;2.67;;
29538;SDS011;16482;51.046;4.498;2023-08-31T09:25:15;5.13;;;2.80;;
29538;SDS011;16482;51.046;4.498;2023-08-31T09:27:41;4.50;;;2.83;;
29538;SDS011;16482;51.046;4.498;2023-08-31T09:30:12;4.40;;;2.75;;
29538;SDS011;16482;51.046;4.498;2023-08-31T09:32:41;4.68;;;2.60;;
29538;SDS011;16482;51.046;4.498;2023-08-31T09:35:12;5.15;;;2.75;;
29538;SDS011;16482;51.046;4.498;2023-08-31T09:37:54;4.43;;;2.75;;
29538;SDS011;16482;51.046;4.498;2023-08-31T09:40:24;4.30;;;2.67;;
29538;SDS011;16482;51.046;4.498;2023-08-31T09:42:52;3.70;;;2.42;;
29538;SDS011;16482;51.046;4.498;2023-08-31T09:45:23;4.90;;;3.20;;
29538;SDS011;16482;51.046;4.498;2023-08-31T09:48:05;5.18;;;2.83;;
29538;SDS011;16482;51.046;4.498;2023-08-31T09:50:31;5.45;;;2.80;;
29538;SDS011;16482;51.046;4.498;2023-08-31T09:53:02;3.65;;;2.58;;
29538;SDS011;16482;51.046;4.498;2023-08-31T09:55:32;3.55;;;2.42;;
29538;SDS011;16482;51.046;4.498;2023-08-31T09:57:59;5.65;;;2.80;;
29538;SDS011;16482;51.046;4.498;2023-08-31T10:00:26;4.70;;;2.70;;
29538;SDS011;16482;51.046;4.498;2023-08-31T10:02:59;3.92;;;2.88;;
29538;SDS011;16482;51.046;4.498;2023-08-31T10:05:27;4.63;;;2.70;;
29538;SDS011;16482;51.046;4.498;2023-08-31T10:07:56;6.65;;;3.20;;
29538;SDS011;16482;51.046;4.498;2023-08-31T10:10:25;6.85;;;2.85;;
29538;SDS011;16482;51.046;4.498;2023-08-31T10:12:56;4.30;;;2.63;;
29538;SDS011;16482;51.046;4.498;2023-08-31T10:15:24;5.93;;;2.85;;
29538;SDS011;16482;51.046;4.498;2023-08-31T10:18:06;4.78;;;2.92;;
29538;SDS011;16482;51.046;4.498;2023-08-31T10:20:33;3.67;;;2.40;;
29538;SDS011;16482;51.046;4.498;2023-08-31T10:23:02;4.32;;;2.78;;
29538;SDS011;16482;51.046;4.498;2023-08-31T10:28:18;4.22;;;3.00;;
29538;SDS011;16482;51.046;4.498;2023-08-31T10:31:00;3.63;;;2.30;;
29538;SDS011;16482;51.046;4.498;2023-08-31T10:36:18;4.22;;;2.60;;
29538;SDS011;16482;51.046;4.498;2023-08-31T10:38:46;4.97;;;2.88;;
29538;SDS011;16482;51.046;4.498;2023-08-31T10:41:33;5.47;;;3.08;;
29538;SDS011;16482;51.046;4.498;2023-08-31T10:44:00;3.67;;;2.88;;
29538;SDS011;16482;51.046;4.498;2023-08-31T10:46:28;5.10;;;3.13;;
29538;SDS011;16482;51.046;4.498;2023-08-31T10:48:55;5.28;;;3.00;;
29538;SDS011;16482;51.046;4.498;2023-08-31T10:51:29;3.55;;;2.80;;
29538;SDS011;16482;51.046;4.498;2023-08-31T10:54:13;3.28;;;2.58;;
29538;SDS011;16482;51.046;4.498;2023-08-31T10:56:54;4.97;;;2.60;;
29538;SDS011;16482;51.046;4.498;2023-08-31T11:02:10;3.60;;;2.67;;
29538;SDS011;16482;51.046;4.498;2023-08-31T11:07:44;3.47;;;2.50;;
29538;SDS011;16482;51.046;4.498;2023-08-31T11:10:19;5.28;;;3.15;;
29538;SDS011;16482;51.046;4.498;2023-08-31T11:12:49;3.70;;;2.55;;
29538;SDS011;16482;51.046;4.498;2023-08-31T11:15:21;5.72;;;2.85;;
29538;SDS011;16482;51.046;4.498;2023-08-31T11:17:51;4.20;;;2.50;;
29538;SDS011;16482;51.046;4.498;2023-08-31T11:20:22;4.97;;;2.95;;
29538;SDS011;16482;51.046;4.498;2023-08-31T11:22:59;4.07;;;2.70;;
29538;SDS011;16482;51.046;4.498;2023-08-31T11:25:25;4.20;;;2.60;;
29538;SDS011;16482;51.046;4.498;2023-08-31T11:28:01;4.38;;;2.95;;
29538;SDS011;16482;51.046;4.498;2023-08-31T11:30:32;5.10;;;2.75;;
29538;SDS011;16482;51.046;4.498;2023-08-31T11:33:17;4.03;;;2.38;;
29538;SDS011;16482;51.046;4.498;2023-08-31T11:35:43;5.53;;;2.63;;
29538;SDS011;16482;51.046;4.498;2023-08-31T11:38:12;4.10;;;2.58;;
29538;SDS011;16482;51.046;4.498;2023-08-31T11:40:41;5.97;;;2.80;;
29538;SDS011;16482;51.046;4.498;2023-08-31T11:43:09;3.78;;;2.47;;
29538;SDS011;16482;51.046;4.498;2023-08-31T11:45:37;3.97;;;2.42;;
29538;SDS011;16482;51.046;4.498;2023-08-31T11:48:05;4.78;;;2.97;;
29538;SDS011;16482;51.046;4.498;2023-08-31T11:50:34;4.75;;;2.60;;
29538;SDS011;16482;51.046;4.498;2023-08-31T11:53:00;4.38;;;2.65;;
29538;SDS011;16482;51.046;4.498;2023-08-31T11:55:26;5.38;;;2.90;;
29538;SDS011;16482;51.046;4.498;2023-08-31T11:57:54;3.75;;;2.60;;
29538;SDS011;16482;51.046;4.498;2023-08-31T12:00:21;6.13;;;3.22;;
29538;SDS011;16482;51.046;4.498;2023-08-31T12:02:55;4.05;;;2.63;;
29538;SDS011;16482;51.046;4.498;2023-08-31T12:05:25;4.65;;;3.17;;
29538;SDS011;16482;51.046;4.498;2023-08-31T12:08:04;4.28;;;2.58;;
29538;SDS011;16482;51.046;4.498;2023-08-31T12:10:30;4.70;;;2.55;;
29538;SDS011;16482;51.046;4.498;2023-08-31T12:13:13;4.28;;;2.78;;
29538;SDS011;16482;51.046;4.498;2023-08-31T12:15:42;4.75;;;2.83;;
29538;SDS011;16482;51.046;4.498;2023-08-31T12:18:09;5.45;;;2.67;;
29538;SDS011;16482;51.046;4.498;2023-08-31T12:23:17;5.72;;;2.70;;
29538;SDS011;16482;51.046;4.498;2023-08-31T12:25:50;4.18;;;2.63;;
29538;SDS011;16482;51.046;4.498;2023-08-31T12:28:20;4.85;;;3.05;;
29538;SDS011;16482;51.046;4.498;2023-08-31T12:33:19;5.25;;;2.80;;
29538;SDS011;16482;51.046;4.498;2023-08-31T12:35:48;5.72;;;3.05;;
29538;SDS011;16482;51.046;4.498;2023-08-31T12:38:14;4.65;;;2.92;;
29538;SDS011;16482;51.046;4.498;2023-08-31T12:40:50;4.68;;;2.88;;
29538;SDS011;16482;51.046;4.498;2023-08-31T12:43:17;5.05;;;2.88;;
29538;SDS011;16482;51.046;4.498;2023-08-31T12:45:43;3.90;;;2.78;;
29538;SDS011;16482;51.046;4.498;2023-08-31T12:48:11;5.82;;;2.75;;
29538;SDS011;16482;51.046;4.498;2023-08-31T12:50:48;4.25;;;2.70;;
29538;SDS011;16482;51.046;4.498;2023-08-31T12:53:14;3.95;;;2.67;;
29538;SDS011;16482;51.046;4.498;2023-08-31T12:55:41;5.47;;;2.90;;
29538;SDS011;16482;51.046;4.498;2023-08-31T12:58:07;3.83;;;2.78;;
29538;SDS011;16482;51.046;4.498;2023-08-31T13:00:33;4.18;;;2.50;;
29538;SDS011;16482;51.046;4.498;2023-08-31T13:02:59;4.38;;;2.67;;
29538;SDS011;16482;51.046;4.498;2023-08-31T13:05:26;4.60;;;2.72;;
29538;SDS011;16482;51.046;4.498;2023-08-31T13:07:54;4.32;;;2.78;;
29538;SDS011;16482;51.046;4.498;2023-08-31T13:10:20;3.55;;;2.58;;
29538;SDS011;16482;51.046;4.498;2023-08-31T13:12:48;5.63;;;2.70;;
29538;SDS011;16482;51.046;4.498;2023-08-31T13:15:14;4.00;;;2.53;;
29538;SDS011;16482;51.046;4.498;2023-08-31T13:17:40;4.50;;;3.00;;
29538;SDS011;16482;51.046;4.498;2023-08-31T13:20:06;4.68;;;2.72;;
29538;SDS011;16482;51.046;4.498;2023-08-31T13:22:35;3.45;;;2.53;;
29538;SDS011;16482;51.046;4.498;2023-08-31T13:25:12;3.63;;;2.83;;
29538;SDS011;16482;51.046;4.498;2023-08-31T13:27:38;4.22;;;2.83;;
29538;SDS011;16482;51.046;4.498;2023-08-31T13:30:07;4.00;;;2.83;;
29538;SDS011;16482;51.046;4.498;2023-08-31T13:32:42;4.63;;;2.80;;
29538;SDS011;16482;51.046;4.498;2023-08-31T13:35:10;4.38;;;2.83;;
29538;SDS011;16482;51.046;4.498;2023-08-31T13:37:39;3.97;;;2.70;;
29538;SDS011;16482;51.046;4.498;2023-08-31T13:40:05;4.55;;;2.75;;
29538;SDS011;16482;51.046;4.498;2023-08-31T13:42:35;4.63;;;2.42;;
29538;SDS011;16482;51.046;4.498;2023-08-31T13:45:07;4.00;;;2.50;;
29538;SDS011;16482;51.046;4.498;2023-08-31T13:47:36;3.83;;;2.58;;
29538;SDS011;16482;51.046;4.498;2023-08-31T13:50:13;4.57;;;2.47;;
29538;SDS011;16482;51.046;4.498;2023-08-31T13:52:41;4.57;;;2.70;;
29538;SDS011;16482;51.046;4.498;2023-08-31T13:55:13;5.22;;;2.65;;
29538;SDS011;16482;51.046;4.498;2023-08-31T13:57:40;4.70;;;2.60;;
29538;SDS011;16482;51.046;4.498;2023-08-31T14:00:10;4.45;;;2.58;;
29538;SDS011;16482;51.046;4.498;2023-08-31T14:02:42;4.55;;;2.42;;
29538;SDS011;16482;51.046;4.498;2023-08-31T14:05:11;4.13;;;2.65;;
29538;SDS011;16482;51.046;4.498;2023-08-31T14:07:42;3.42;;;2.33;;
29538;SDS011;16482;51.046;4.498;2023-08-31T14:10:10;3.80;;;2.67;;
29538;SDS011;16482;51.046;4.498;2023-08-31T14:12:42;3.78;;;2.60;;
29538;SDS011;16482;51.046;4.498;2023-08-31T14:15:11;5.32;;;2.70;;
29538;SDS011;16482;51.046;4.498;2023-08-31T14:17:37;3.60;;;2.28;;
29538;SDS011;16482;51.046;4.498;2023-08-31T14:20:06;4.18;;;2.50;;
29538;SDS011;16482;51.046;4.498;2023-08-31T14:22:36;4.30;;;2.80;;
29538;SDS011;16482;51.046;4.498;2023-08-31T14:25:08;6.57;;;2.80;;
29538;SDS011;16482;51.046;4.498;2023-08-31T14:27:37;4.95;;;2.63;;
29538;SDS011;16482;51.046;4.498;2023-08-31T14:30:07;5.30;;;2.78;;
29538;SDS011;16482;51.046;4.498;2023-08-31T14:32:38;3.40;;;2.38;;
29538;SDS011;16482;51.046;4.498;2023-08-31T14:35:08;5.20;;;2.75;;
29538;SDS011;16482;51.046;4.498;2023-08-31T14:37:44;4.43;;;2.28;;
29538;SDS011;16482;51.046;4.498;2023-08-31T14:40:12;6.07;;;2.78;;
29538;SDS011;16482;51.046;4.498;2023-08-31T14:42:41;4.97;;;2.25;;
29538;SDS011;16482;51.046;4.498;2023-08-31T14:45:07;5.65;;;2.92;;
29538;SDS011;16482;51.046;4.498;2023-08-31T14:47:33;5.05;;;2.67;;
29538;SDS011;16482;51.046;4.498;2023-08-31T14:50:00;4.65;;;2.33;;
29538;SDS011;16482;51.046;4.498;2023-08-31T14:52:29;4.25;;;2.50;;
29538;SDS011;16482;51.046;4.498;2023-08-31T14:54:55;5.32;;;2.38;;
29538;SDS011;16482;51.046;4.498;2023-08-31T14:57:30;3.55;;;2.15;;
29538;SDS011;16482;51.046;4.498;2023-08-31T14:59:56;4.03;;;2.53;;
29538;SDS011;16482;51.046;4.498;2023-08-31T15:02:24;4.93;;;2.40;;
29538;SDS011;16482;51.046;4.498;2023-08-31T15:04:50;5.18;;;2.78;;
29538;SDS011;16482;51.046;4.498;2023-08-31T15:07:17;5.35;;;2.58;;
29538;SDS011;16482;51.046;4.498;2023-08-31T15:09:43;6.40;;;2.67;;
29538;SDS011;16482;51.046;4.498;2023-08-31T15:12:09;3.95;;;2.47;;
29538;SDS011;16482;51.046;4.498;2023-08-31T15:14:36;4.35;;;2.50;;
29538;SDS011;16482;51.046;4.498;2023-08-31T15:17:06;5.07;;;2.55;;
29538;SDS011;16482;51.046;4.498;2023-08-31T15:19:32;4.75;;;2.70;;
29538;SDS011;16482;51.046;4.498;2023-08-31T15:22:01;6.43;;;2.75;;
29538;SDS011;16482;51.046;4.498;2023-08-31T15:24:29;4.32;;;2.47;;
29538;SDS011;16482;51.046;4.498;2023-08-31T15:26:55;4.60;;;2.42;;
29538;SDS011;16482;51.046;4.498;2023-08-31T15:29:31;7.47;;;2.67;;
29538;SDS011;16482;51.046;4.498;2023-08-31T15:31:59;5.40;;;2.78;;
29538;SDS011;16482;51.046;4.498;2023-08-31T15:34:25;5.13;;;2.72;;